^^
Station Historical Data
Daily Summary for June 10, 2021 Units:  English    Metric   Both
Daily Weekly Monthly Yearly
  High: Low: Average:
Temperature: 84.3 °F 65.9 °F 73.6 °F
Dew Point: 71.5 °F 60.4 °F 65.9 °F
Humidity: 91% 62% 78%
Wind Speed: 5mph 0mph 2mph
Wind Gust: 7mph - -
Wind- - ESE
Pressure: 30.02 in 29.84 in -
Precipitation: 0.00 in    
 
 
Tabular Data for June 10, 2021
Time Temperature Dew Point Pressure Wind Wind Speed Wind Gust Humidity Rainfall Rate (Hourly) solar
00:00 67.7 °F 61.7 °F 30.02 in North 2 mph 2 mph 81% 0.00 in 0 W/m2
00:05 67.7 °F 61.7 °F 30.01 in NW 2 mph 2 mph 81% 0.00 in 0 W/m2
00:10 67.7 °F 61.7 °F 30.01 in North 2 mph 6 mph 81% 0.00 in 0 W/m2
00:15 67.7 °F 61.3 °F 30.01 in NE 2 mph 6 mph 80% 0.00 in 0 W/m2
00:20 67.7 °F 61.3 °F 30.01 in NNW 3 mph 3 mph 80% 0.00 in 0 W/m2
00:25 67.7 °F 61 °F 30.01 in NNE 3 mph 3 mph 79% 0.00 in 0 W/m2
00:30 67.6 °F 60.9 °F 30.01 in NNE 3 mph 3 mph 79% 0.00 in 0 W/m2
00:35 67.7 °F 60.6 °F 30.01 in NNE 2 mph 3 mph 78% 0.00 in 0 W/m2
00:40 67.6 °F 60.5 °F 30.01 in NE 2 mph 3 mph 78% 0.00 in 0 W/m2
00:45 67.7 °F 60.6 °F 30.01 in North 3 mph 3 mph 78% 0.00 in 0 W/m2
00:50 67.7 °F 60.6 °F 30.01 in NE 3 mph 3 mph 78% 0.00 in 0 W/m2
00:55 67.7 °F 60.6 °F 30.02 in SE 2 mph 3 mph 78% 0.00 in 0 W/m2
01:00 67.7 °F 61 °F 30.01 in ENE 2 mph 2 mph 79% 0.00 in 0 W/m2
01:05 67.7 °F 61.3 °F 30.01 in NNE 2 mph 2 mph 80% 0.00 in 0 W/m2
01:10 67.8 °F 61.8 °F 30.01 in NE 1 mph 1 mph 81% 0.00 in 0 W/m2
01:15 67.7 °F 61.7 °F 30.01 in SW 1 mph 1 mph 81% 0.00 in 0 W/m2
01:20 67.7 °F 61.7 °F 30.02 in ESE 1 mph 1 mph 81% 0.00 in 0 W/m2
01:25 67.7 °F 61.3 °F 30.01 in NE 1 mph 1 mph 80% 0.00 in 0 W/m2
01:30 67.6 °F 60.9 °F 30.02 in ESE 1 mph 2 mph 79% 0.00 in 0 W/m2
01:35 67.5 °F 60.4 °F 30.02 in NE 1 mph 2 mph 78% 0.00 in 0 W/m2
01:40 67.5 °F 60.8 °F 30.01 in North 1 mph 1 mph 79% 0.00 in 0 W/m2
01:45 67.5 °F 60.8 °F 30.01 in ENE 1 mph 2 mph 79% 0.00 in 0 W/m2
01:50 67.4 °F 60.7 °F 30.01 in East 1 mph 1 mph 79% 0.00 in 0 W/m2
01:55 67.4 °F 60.7 °F 30.01 in West 1 mph 1 mph 79% 0.00 in 0 W/m2
02:00 67.4 °F 61 °F 30.01 in SE 1 mph 1 mph 80% 0.00 in 0 W/m2
02:05 67.4 °F 61 °F 30.01 in SSE 1 mph 2 mph 80% 0.00 in 0 W/m2
02:10 67.4 °F 61 °F 30.01 in East 1 mph 1 mph 80% 0.00 in 0 W/m2
02:15 67.4 °F 61 °F 30.01 in NE 1 mph 1 mph 80% 0.00 in 0 W/m2
02:20 67.4 °F 61.4 °F 30.01 in ENE 2 mph 2 mph 81% 0.00 in 0 W/m2
02:25 67.4 °F 61.4 °F 30.00 in ENE 2 mph 2 mph 81% 0.00 in 0 W/m2
02:30 67.4 °F 61.4 °F 30.00 in NE 1 mph 1 mph 81% 0.00 in 0 W/m2
02:35 67.3 °F 61.6 °F 30.00 in East 1 mph 2 mph 82% 0.00 in 0 W/m2
02:40 67.2 °F 61.5 °F 30.00 in East 1 mph 3 mph 82% 0.00 in 0 W/m2
02:45 67.2 °F 61.5 °F 30.00 in NE 1 mph 3 mph 82% 0.00 in 0 W/m2
02:50 67.1 °F 61.4 °F 30.00 in NE 1 mph 1 mph 82% 0.00 in 0 W/m2
02:55 67.1 °F 61.8 °F 30.00 in East 2 mph 2 mph 83% 0.00 in 0 W/m2
03:00 67.1 °F 61.8 °F 29.99 in East 2 mph 2 mph 83% 0.00 in 0 W/m2
03:05 67.1 °F 62.1 °F 29.99 in NE 2 mph 2 mph 84% 0.00 in 0 W/m2
03:10 67 °F 62 °F 29.99 in East 2 mph 2 mph 84% 0.00 in 0 W/m2
03:15 66.9 °F 61.9 °F 29.99 in NE 2 mph 2 mph 84% 0.00 in 0 W/m2
03:20 66.9 °F 61.9 °F 29.99 in ESE 2 mph 2 mph 84% 0.00 in 0 W/m2
03:25 66.9 °F 62.2 °F 29.99 in ENE 1 mph 2 mph 85% 0.00 in 0 W/m2
03:30 67.1 °F 62.8 °F 29.99 in SE 1 mph 1 mph 86% 0.00 in 0 W/m2
03:35 67.2 °F 62.9 °F 29.99 in SE 1 mph 1 mph 86% 0.00 in 0 W/m2
03:40 67.2 °F 62.9 °F 29.99 in NE 1 mph 1 mph 86% 0.00 in 0 W/m2
03:45 67.3 °F 63 °F 29.99 in South 1 mph 1 mph 86% 0.00 in 0 W/m2
03:50 67.2 °F 62.9 °F 29.99 in SE 1 mph 1 mph 86% 0.00 in 0 W/m2
03:55 67.3 °F 63.3 °F 29.99 in ESE 1 mph 1 mph 87% 0.00 in 0 W/m2
04:00 67.4 °F 63.1 °F 29.99 in NE 1 mph 1 mph 86% 0.00 in 0 W/m2
04:05 67.4 °F 63.1 °F 29.99 in SE 1 mph 1 mph 86% 0.00 in 0 W/m2
04:10 67.4 °F 63.1 °F 29.99 in Calm     86% 0.00 in 0 W/m2
04:15 67.4 °F 63.1 °F 29.99 in NNW 1 mph 2 mph 86% 0.00 in 0 W/m2
04:20 67.3 °F 63 °F 29.99 in ENE 1 mph 1 mph 86% 0.00 in 0 W/m2
04:25 67.1 °F 62.4 °F 29.99 in Calm   1 mph 85% 0.00 in 0 W/m2
04:30 67.1 °F 62.4 °F 29.99 in North 1 mph 1 mph 85% 0.00 in 0 W/m2
04:35 66.9 °F 62.2 °F 29.99 in NNE 1 mph 1 mph 85% 0.00 in 0 W/m2
04:40 66.9 °F 62.2 °F 29.99 in NE 1 mph 1 mph 85% 0.00 in 0 W/m2
04:45 66.8 °F 62.1 °F 29.99 in Calm   1 mph 85% 0.00 in 0 W/m2
04:50 66.7 °F 62 °F 29.99 in NNE 1 mph 1 mph 85% 0.00 in 0 W/m2
04:55 66.6 °F 62.3 °F 29.99 in NNE 1 mph 1 mph 86% 0.00 in 0 W/m2
05:00 66.4 °F 62.1 °F 29.99 in ENE 1 mph 1 mph 86% 0.00 in 0 W/m2
05:05 66.4 °F 62.1 °F 29.98 in NE 1 mph 1 mph 86% 0.00 in 0 W/m2
05:10 66.3 °F 62.3 °F 29.98 in ENE 1 mph 1 mph 87% 0.00 in 0 W/m2
05:15 66.2 °F 62.2 °F 29.98 in NNE 1 mph 1 mph 87% 0.00 in 0 W/m2
05:20 66.1 °F 62.1 °F 29.98 in Calm   1 mph 87% 0.00 in 0 W/m2
05:25 66.1 °F 62.1 °F 29.98 in Calm   1 mph 87% 0.00 in 0 W/m2
05:30 66.1 °F 62.1 °F 29.98 in ENE 1 mph 1 mph 87% 0.00 in 0 W/m2
05:35 66.1 °F 62.4 °F 29.98 in NNE 1 mph 2 mph 88% 0.00 in 0 W/m2
05:40 66 °F 62.3 °F 29.98 in NE 1 mph 1 mph 88% 0.00 in 0 W/m2
05:45 66.1 °F 62.4 °F 29.97 in ENE 2 mph 2 mph 88% 0.00 in 0 W/m2
05:50 66 °F 62.7 °F 29.97 in East 2 mph 2 mph 89% 0.00 in 0 W/m2
05:55 66 °F 62.7 °F 29.97 in East 1 mph 2 mph 89% 0.00 in 0 W/m2
06:00 66 °F 62.7 °F 29.97 in North 1 mph 1 mph 89% 0.00 in 0 W/m2
06:05 65.9 °F 62.6 °F 29.97 in NE 1 mph 1 mph 89% 0.00 in 5 W/m2
06:10 65.9 °F 62.6 °F 29.97 in NE 1 mph 1 mph 89% 0.00 in 9 W/m2
06:15 66.1 °F 63.1 °F 29.97 in East 1 mph 2 mph 90% 0.00 in 12 W/m2
06:20 66.2 °F 63.2 °F 29.97 in ESE 1 mph 1 mph 90% 0.00 in 14 W/m2
06:25 66.2 °F 63.2 °F 29.96 in ENE 1 mph 1 mph 90% 0.00 in 19 W/m2
06:30 66.2 °F 63.2 °F 29.96 in ENE 1 mph 1 mph 90% 0.00 in 23 W/m2
06:35 66.2 °F 63.2 °F 29.96 in ENE 1 mph 1 mph 90% 0.00 in 26 W/m2
06:40 66.2 °F 63.2 °F 29.96 in NNE 1 mph 1 mph 90% 0.00 in 30 W/m2
06:45 66.1 °F 63.1 °F 29.97 in NE 1 mph 1 mph 90% 0.00 in 33 W/m2
06:50 66.2 °F 63.2 °F 29.97 in NE 1 mph 1 mph 90% 0.00 in 33 W/m2
06:55 66.2 °F 63.2 °F 29.97 in ENE 1 mph 1 mph 90% 0.00 in 37 W/m2
07:00 66.2 °F 63.2 °F 29.97 in NE 1 mph 1 mph 90% 0.00 in 39 W/m2
07:05 66.2 °F 63.2 °F 29.97 in North 1 mph 1 mph 90% 0.00 in 42 W/m2
07:10 66.3 °F 63.3 °F 29.97 in NE 1 mph 1 mph 90% 0.00 in 47 W/m2
07:15 66.4 °F 63.4 °F 29.97 in NW 1 mph 2 mph 90% 0.00 in 49 W/m2
07:20 66.6 °F 63.6 °F 29.97 in NE 1 mph 1 mph 90% 0.00 in 53 W/m2
07:25 66.7 °F 64 °F 29.97 in ESE 1 mph 1 mph 91% 0.00 in 56 W/m2
07:30 66.8 °F 64.1 °F 29.97 in NNE 1 mph 1 mph 91% 0.00 in 83 W/m2
07:35 66.9 °F 63.9 °F 29.97 in NNE 1 mph 2 mph 90% 0.00 in 93 W/m2
07:40 66.9 °F 63.9 °F 29.97 in NNE 1 mph 1 mph 90% 0.00 in 137 W/m2
07:45 67 °F 64 °F 29.97 in North 1 mph 1 mph 90% 0.00 in 193 W/m2
07:50 67.1 °F 64.1 °F 29.97 in East 1 mph 3 mph 90% 0.00 in 207 W/m2
07:55 67.2 °F 64.2 °F 29.97 in ENE 2 mph 3 mph 90% 0.00 in 223 W/m2
08:00 67.3 °F 64.3 °F 29.97 in NNE 2 mph 2 mph 90% 0.00 in 236 W/m2
08:05 67.5 °F 64.5 °F 29.97 in ENE 2 mph 2 mph 90% 0.00 in 246 W/m2
08:10 67.6 °F 64.6 °F 29.97 in East 2 mph 3 mph 90% 0.00 in 260 W/m2
08:15 67.8 °F 64.8 °F 29.97 in NE 2 mph 3 mph 90% 0.00 in 276 W/m2
08:20 68.1 °F 65.1 °F 29.96 in ENE 2 mph 3 mph 90% 0.00 in 292 W/m2
08:25 68.3 °F 65.3 °F 29.96 in NNE 2 mph 3 mph 90% 0.00 in 308 W/m2
08:30 68.5 °F 65.4 °F 29.96 in East 2 mph 2 mph 90% 0.00 in 325 W/m2
08:35 68.6 °F 65.5 °F 29.96 in NE 2 mph 2 mph 90% 0.00 in 341 W/m2
08:40 68.8 °F 65.7 °F 29.97 in NE 2 mph 2 mph 90% 0.00 in 355 W/m2
08:45 69 °F 65.9 °F 29.97 in East 2 mph 2 mph 90% 0.00 in 367 W/m2
08:50 69.1 °F 66 °F 29.97 in NW 2 mph 2 mph 90% 0.00 in 381 W/m2
08:55 69.4 °F 66 °F 29.97 in East 1 mph 2 mph 89% 0.00 in 394 W/m2
09:00 69.7 °F 66.6 °F 29.97 in SE 1 mph 2 mph 90% 0.00 in 408 W/m2
09:05 69.9 °F 66.5 °F 29.97 in ESE 2 mph 2 mph 89% 0.00 in 392 W/m2
09:10 70.1 °F 66.7 °F 29.97 in ENE 2 mph 2 mph 89% 0.00 in 420 W/m2
09:15 70.3 °F 66.6 °F 29.97 in NNE 2 mph 2 mph 88% 0.00 in 438 W/m2
09:20 70.6 °F 66.9 °F 29.98 in ESE 2 mph 2 mph 88% 0.00 in 439 W/m2
09:25 70.8 °F 66.7 °F 29.98 in ESE 2 mph 2 mph 87% 0.00 in 452 W/m2
09:30 70.9 °F 66.5 °F 29.98 in NE 2 mph 2 mph 86% 0.00 in 480 W/m2
09:35 71.1 °F 66.7 °F 29.97 in NE 2 mph 2 mph 86% 0.00 in 492 W/m2
09:40 71 °F 66.3 °F 29.98 in NE 2 mph 2 mph 85% 0.00 in 499 W/m2
09:45 71 °F 66.3 °F 29.98 in NE 2 mph 2 mph 85% 0.00 in 510 W/m2
09:50 71 °F 66.3 °F 29.98 in ENE 2 mph 2 mph 85% 0.00 in 533 W/m2
09:55 71.1 °F 66.4 °F 29.97 in ESE 2 mph 2 mph 85% 0.00 in 540 W/m2
10:00 71.3 °F 66.6 °F 29.98 in NNE 2 mph 2 mph 85% 0.00 in 554 W/m2
10:05 71.5 °F 67.1 °F 29.97 in North 2 mph 3 mph 86% 0.00 in 570 W/m2
10:10 71.6 °F 66.8 °F 29.97 in NE 2 mph 2 mph 85% 0.00 in 584 W/m2
10:15 71.7 °F 66.9 °F 29.96 in East 2 mph 2 mph 85% 0.00 in 598 W/m2
10:20 72 °F 67.2 °F 29.96 in ESE 2 mph 2 mph 85% 0.00 in 606 W/m2
10:25 72.1 °F 67.3 °F 29.96 in WNW 2 mph 2 mph 85% 0.00 in 621 W/m2
10:30 72.2 °F 67.1 °F 29.96 in NNE 2 mph 2 mph 84% 0.00 in 629 W/m2
10:35 72.3 °F 67.2 °F 29.96 in NNW 3 mph 4 mph 84% 0.00 in 638 W/m2
10:40 72.5 °F 67.4 °F 29.96 in NNW 3 mph 3 mph 84% 0.00 in 649 W/m2
10:45 72.6 °F 67.5 °F 29.97 in NNE 3 mph 5 mph 84% 0.00 in 656 W/m2
10:50 72.8 °F 67.7 °F 29.97 in NNE 3 mph 3 mph 84% 0.00 in 664 W/m2
10:55 72.9 °F 67.4 °F 29.97 in NNE 3 mph 3 mph 83% 0.00 in 675 W/m2
11:00 73 °F 67.9 °F 29.97 in NNE 3 mph 3 mph 84% 0.00 in 691 W/m2
11:05 73.2 °F 68.1 °F 29.97 in NNE 2 mph 3 mph 84% 0.00 in 694 W/m2
11:10 73.4 °F 68.3 °F 29.96 in North 2 mph 5 mph 84% 0.00 in 696 W/m2
11:15 73.6 °F 68.1 °F 29.97 in WNW 3 mph 6 mph 83% 0.00 in 710 W/m2
11:20 73.7 °F 68.2 °F 29.97 in North 4 mph 5 mph 83% 0.00 in 714 W/m2
11:25 73.5 °F 67.3 °F 29.97 in NNW 5 mph 7 mph 81% 0.00 in 735 W/m2
11:30 73.2 °F 67 °F 29.98 in NNW 5 mph 7 mph 81% 0.00 in 752 W/m2
11:35 72.6 °F 66.1 °F 29.98 in North 5 mph 7 mph 80% 0.00 in 726 W/m2
11:40 72.3 °F 66.5 °F 29.97 in North 5 mph 5 mph 82% 0.00 in 763 W/m2
11:45 72.2 °F 66.4 °F 29.97 in North 4 mph 5 mph 82% 0.00 in 726 W/m2
11:50 72 °F 66.2 °F 29.97 in South 4 mph 4 mph 82% 0.00 in 759 W/m2
11:55 71.9 °F 65.8 °F 29.97 in North 4 mph 4 mph 81% 0.00 in 742 W/m2
12:00 71.7 °F 65.6 °F 29.97 in North 4 mph 4 mph 81% 0.00 in 747 W/m2
12:05 71.6 °F 65.8 °F 29.97 in SSE 4 mph 4 mph 82% 0.00 in 752 W/m2
12:10 71.5 °F 65.7 °F 29.97 in WNW 4 mph 4 mph 82% 0.00 in 756 W/m2
12:15 71.5 °F 65.7 °F 29.97 in NE 3 mph 4 mph 82% 0.00 in 773 W/m2
12:20 71.5 °F 65.7 °F 29.97 in ENE 3 mph 3 mph 82% 0.00 in 680 W/m2
12:25 71.5 °F 65.7 °F 29.97 in East 3 mph 3 mph 82% 0.00 in 766 W/m2
12:30 71.7 °F 65.9 °F 29.97 in NNE 3 mph 3 mph 82% 0.00 in 800 W/m2
12:35 71.8 °F 66 °F 29.97 in NNE 3 mph 3 mph 82% 0.00 in 782 W/m2
12:40 72 °F 66.2 °F 29.96 in NNE 3 mph 3 mph 82% 0.00 in 789 W/m2
12:45 72 °F 66.2 °F 29.97 in NNE 3 mph 3 mph 82% 0.00 in 809 W/m2
12:50 71.7 °F 65.6 °F 29.97 in ENE 4 mph 4 mph 81% 0.00 in 805 W/m2
12:55 71.5 °F 65.7 °F 29.97 in ESE 3 mph 4 mph 82% 0.00 in 802 W/m2
13:00 72.1 °F 66.3 °F 29.96 in North 3 mph 3 mph 82% 0.00 in 821 W/m2
13:05 71.9 °F 65.8 °F 29.96 in North 3 mph 3 mph 81% 0.00 in 823 W/m2
13:10 72.2 °F 66 °F 29.96 in NNW 3 mph 4 mph 81% 0.00 in 814 W/m2
13:15 72.5 °F 66.3 °F 29.96 in NE 3 mph 6 mph 81% 0.00 in 816 W/m2
13:20 72.1 °F 65.9 °F 29.97 in NE 3 mph 4 mph 81% 0.00 in 814 W/m2
13:25 71.9 °F 65.8 °F 29.96 in NE 3 mph 6 mph 81% 0.00 in 817 W/m2
13:30 71.7 °F 65.6 °F 29.96 in ENE 4 mph 4 mph 81% 0.00 in 849 W/m2
13:35 72 °F 65.8 °F 29.96 in NNE 3 mph 4 mph 81% 0.00 in 823 W/m2
13:40 72.8 °F 66.3 °F 29.96 in NNW 3 mph 4 mph 80% 0.00 in 814 W/m2
13:45 73.5 °F 66.6 °F 29.96 in NE 3 mph 4 mph 79% 0.00 in 828 W/m2
13:50 73.9 °F 67.3 °F 29.95 in NE 3 mph 3 mph 80% 0.00 in 842 W/m2
13:55 74.7 °F 67.8 °F 29.96 in ENE 3 mph 3 mph 79% 0.00 in 789 W/m2
14:00 75.2 °F 67.9 °F 29.95 in NW 3 mph 5 mph 78% 0.00 in 756 W/m2
14:05 74.7 °F 67.8 °F 29.95 in NE 3 mph 5 mph 79% 0.00 in 800 W/m2
14:10 75.3 °F 68 °F 29.95 in ESE 4 mph 4 mph 78% 0.00 in 805 W/m2
14:15 75.5 °F 68.2 °F 29.94 in NE 3 mph 4 mph 78% 0.00 in 803 W/m2
14:20 75.9 °F 67.8 °F 29.94 in NE 3 mph 4 mph 76% 0.00 in 798 W/m2
14:25 76 °F 67.9 °F 29.94 in NE 3 mph 4 mph 76% 0.00 in 754 W/m2
14:30 76 °F 68.3 °F 29.94 in East 3 mph 3 mph 77% 0.00 in 816 W/m2
14:35 75.9 °F 67.8 °F 29.94 in NE 3 mph 4 mph 76% 0.00 in 779 W/m2
14:40 76.1 °F 68 °F 29.94 in NE 3 mph 3 mph 76% 0.00 in 809 W/m2
14:45 76.4 °F 68.3 °F 29.93 in NW 3 mph 3 mph 76% 0.00 in 768 W/m2
14:50 76.6 °F 68.1 °F 29.93 in WSW 3 mph 3 mph 75% 0.00 in 798 W/m2
14:55 76.7 °F 68.2 °F 29.93 in NNE 2 mph 3 mph 75% 0.00 in 780 W/m2
15:00 76.7 °F 68.2 °F 29.93 in East 2 mph 2 mph 75% 0.00 in 788 W/m2
15:05 76.8 °F 68.3 °F 29.93 in ENE 2 mph 3 mph 75% 0.00 in 749 W/m2
15:10 77.2 °F 68.7 °F 29.92 in WNW 3 mph 3 mph 75% 0.00 in 798 W/m2
15:15 77.5 °F 69.3 °F 29.92 in NNW 3 mph 3 mph 76% 0.00 in 773 W/m2
15:20 78.4 °F 69.8 °F 29.92 in North 2 mph 2 mph 75% 0.00 in 770 W/m2
15:25 78.9 °F 69.9 °F 29.92 in NE 2 mph 4 mph 74% 0.00 in 770 W/m2
15:30 80.5 °F 70.6 °F 29.91 in NW 2 mph 2 mph 72% 0.00 in 761 W/m2
15:35 81.7 °F 70.5 °F 29.92 in NE 2 mph 3 mph 69% 0.00 in 745 W/m2
15:40 83 °F 70 °F 29.91 in ESE 3 mph 4 mph 65% 0.00 in 765 W/m2
15:45 83.6 °F 69.7 °F 29.92 in SSE 4 mph 4 mph 63% 0.00 in 742 W/m2
15:50 83.6 °F 70.6 °F 29.91 in SE 4 mph 4 mph 65% 0.00 in 740 W/m2
15:55 83.3 °F 70.8 °F 29.91 in ENE 3 mph 5 mph 66% 0.00 in 731 W/m2
16:00 83.1 °F 69.7 °F 29.91 in SE 3 mph 3 mph 64% 0.00 in 721 W/m2
16:05 83.3 °F 70.3 °F 29.90 in ESE 3 mph 3 mph 65% 0.00 in 715 W/m2
16:10 82.9 °F 71.3 °F 29.90 in ESE 3 mph 3 mph 68% 0.00 in 701 W/m2
16:15 83.2 °F 71.5 °F 29.90 in SE 2 mph 4 mph 68% 0.00 in 693 W/m2
16:20 83.4 °F 69.5 °F 29.90 in East 3 mph 5 mph 63% 0.00 in 689 W/m2
16:25 83.9 °F 69.5 °F 29.90 in ESE 3 mph 5 mph 62% 0.00 in 680 W/m2
16:30 83.9 °F 69.5 °F 29.90 in ESE 3 mph 6 mph 62% 0.00 in 668 W/m2
16:35 84 °F 69.6 °F 29.90 in ESE 3 mph 6 mph 62% 0.00 in 659 W/m2
16:40 84.3 °F 69.9 °F 29.90 in ESE 3 mph 3 mph 62% 0.00 in 636 W/m2
16:45 84.3 °F 69.9 °F 29.90 in ESE 2 mph 3 mph 62% 0.00 in 631 W/m2
16:50 84.3 °F 71.2 °F 29.89 in ESE 2 mph 2 mph 65% 0.00 in 622 W/m2
16:55 83.9 °F 70 °F 29.89 in SE 2 mph 3 mph 63% 0.00 in 613 W/m2
17:00 83.6 °F 70.1 °F 29.89 in ESE 2 mph 3 mph 64% 0.00 in 601 W/m2
17:05 83.5 °F 70.9 °F 29.89 in East 2 mph 3 mph 66% 0.00 in 591 W/m2
17:10 83.5 °F 70.9 °F 29.89 in ESE 2 mph 4 mph 66% 0.00 in 580 W/m2
17:15 83.4 °F 69 °F 29.89 in East 2 mph 4 mph 62% 0.00 in 564 W/m2
17:20 83.6 °F 70.1 °F 29.89 in South 3 mph 4 mph 64% 0.00 in 554 W/m2
17:25 83.6 °F 69.7 °F 29.89 in ESE 3 mph 4 mph 63% 0.00 in 543 W/m2
17:30 83.6 °F 69.7 °F 29.89 in ESE 2 mph 3 mph 63% 0.00 in 529 W/m2
17:35 83.7 °F 70.7 °F 29.89 in SE 2 mph 3 mph 65% 0.00 in 513 W/m2
17:40 83.6 °F 70.1 °F 29.88 in SSE 2 mph 3 mph 64% 0.00 in 508 W/m2
17:45 83.6 °F 70.1 °F 29.88 in SE 3 mph 3 mph 64% 0.00 in 489 W/m2
17:50 83.8 °F 70.3 °F 29.88 in SE 2 mph 2 mph 64% 0.00 in 482 W/m2
17:55 83.6 °F 69.2 °F 29.88 in SSE 2 mph 2 mph 62% 0.00 in 466 W/m2
18:00 83.6 °F 69.7 °F 29.88 in ENE 3 mph 3 mph 63% 0.00 in 450 W/m2
18:05 83.6 °F 69.7 °F 29.88 in SE 3 mph 3 mph 63% 0.00 in 439 W/m2
18:10 83.6 °F 70.6 °F 29.88 in East 2 mph 2 mph 65% 0.00 in 425 W/m2
18:15 83.1 °F 70.1 °F 29.87 in SE 2 mph 3 mph 65% 0.00 in 413 W/m2
18:20 82.8 °F 70.3 °F 29.87 in ENE 2 mph 2 mph 66% 0.00 in 403 W/m2
18:25 82.5 °F 69.5 °F 29.87 in ESE 2 mph 2 mph 65% 0.00 in 387 W/m2
18:30 82.4 °F 70.3 °F 29.86 in SW 2 mph 2 mph 67% 0.00 in 374 W/m2
18:35 82.4 °F 69.4 °F 29.86 in SE 1 mph 2 mph 65% 0.00 in 357 W/m2
18:40 82.3 °F 70.2 °F 29.86 in West 1 mph 1 mph 67% 0.00 in 341 W/m2
18:45 82.3 °F 70.2 °F 29.86 in South 1 mph 1 mph 67% 0.00 in 323 W/m2
18:50 82.3 °F 69.4 °F 29.86 in ESE 2 mph 2 mph 65% 0.00 in 315 W/m2
18:55 82.3 °F 69.8 °F 29.85 in SE 2 mph 2 mph 66% 0.00 in 301 W/m2
19:00 82.3 °F 69.8 °F 29.85 in SE 2 mph 2 mph 66% 0.00 in 288 W/m2
19:05 82.2 °F 70.1 °F 29.85 in ESE 2 mph 3 mph 67% 0.00 in 272 W/m2
19:10 82.1 °F 70.5 °F 29.85 in SW 1 mph 3 mph 68% 0.00 in 253 W/m2
19:15 82 °F 70 °F 29.85 in NE 2 mph 3 mph 67% 0.00 in 244 W/m2
19:20 82 °F 70.8 °F 29.84 in East 2 mph 2 mph 69% 0.00 in 232 W/m2
19:25 81.9 °F 69.4 °F 29.84 in East 2 mph 2 mph 66% 0.00 in 218 W/m2
19:30 81.8 °F 70.2 °F 29.84 in East 2 mph 2 mph 68% 0.00 in 204 W/m2
19:35 81.8 °F 70.2 °F 29.85 in East 2 mph 2 mph 68% 0.00 in 193 W/m2
19:40 81.8 °F 68.9 °F 29.85 in East 2 mph 2 mph 65% 0.00 in 179 W/m2
19:45 81.8 °F 70.6 °F 29.84 in ESE 2 mph 3 mph 69% 0.00 in 169 W/m2
19:50 81.7 °F 69.2 °F 29.84 in SE 2 mph 3 mph 66% 0.00 in 149 W/m2
19:55 81.5 °F 68.6 °F 29.84 in SE 2 mph 3 mph 65% 0.00 in 40 W/m2
20:00 81.4 °F 69.8 °F 29.84 in ESE 2 mph 3 mph 68% 0.00 in 32 W/m2
20:05 81.3 °F 69.7 °F 29.84 in SE 2 mph 3 mph 68% 0.00 in 26 W/m2
20:10 81.2 °F 69.6 °F 29.84 in ESE 2 mph 2 mph 68% 0.00 in 26 W/m2
20:15 81.1 °F 69.5 °F 29.84 in SSE 2 mph 2 mph 68% 0.00 in 26 W/m2
20:20 81 °F 69.4 °F 29.84 in SE 2 mph 2 mph 68% 0.00 in 25 W/m2
20:25 80.9 °F 68.9 °F 29.84 in SE 2 mph 2 mph 67% 0.00 in 23 W/m2
20:30 80.8 °F 69.2 °F 29.84 in SE 2 mph 2 mph 68% 0.00 in 21 W/m2
20:35 80.6 °F 68.2 °F 29.84 in ESE 2 mph 2 mph 66% 0.00 in 23 W/m2
20:40 80.5 °F 69 °F 29.84 in ESE 2 mph 2 mph 68% 0.00 in 23 W/m2
20:45 80.3 °F 68.8 °F 29.84 in East 2 mph 2 mph 68% 0.00 in 21 W/m2
20:50 80.2 °F 67.8 °F 29.84 in ENE 2 mph 2 mph 66% 0.00 in 18 W/m2
20:55 80.1 °F 68.6 °F 29.84 in SE 2 mph 2 mph 68% 0.00 in 14 W/m2
21:00 79.9 °F 68.4 °F 29.84 in SE 2 mph 2 mph 68% 0.00 in 11 W/m2
21:05 79.8 °F 67.9 °F 29.84 in ESE 1 mph 2 mph 67% 0.00 in 7 W/m2
21:10 79.6 °F 67.7 °F 29.84 in ESE 2 mph 2 mph 67% 0.00 in 5 W/m2
21:15 79.5 °F 67.6 °F 29.84 in SE 2 mph 3 mph 67% 0.00 in 0 W/m2
21:20 79.4 °F 67.9 °F 29.84 in SSE 1 mph 1 mph 68% 0.00 in 0 W/m2
21:25 79.3 °F 67.4 °F 29.84 in SSW 1 mph 1 mph 67% 0.00 in 0 W/m2
21:30 79.1 °F 66.8 °F 29.85 in ESE 1 mph 1 mph 66% 0.00 in 0 W/m2
21:35 79 °F 67.5 °F 29.85 in ESE 1 mph 2 mph 68% 0.00 in 0 W/m2
21:40 78.9 °F 66.6 °F 29.85 in SE 1 mph 1 mph 66% 0.00 in 0 W/m2
21:45 78.7 °F 66.8 °F 29.85 in South 1 mph 1 mph 67% 0.00 in 0 W/m2
21:50 78.6 °F 66.3 °F 29.85 in ESE 1 mph 2 mph 66% 0.00 in 0 W/m2
22:00 78.3 °F 66.9 °F 29.85 in ESE 2 mph 2 mph 68% 0.00 in 0 W/m2
22:05 78.2 °F 66.8 °F 29.85 in East 1 mph 2 mph 68% 0.00 in 0 W/m2
22:10 78.1 °F 65.8 °F 29.85 in East 1 mph 1 mph 66% 0.00 in 0 W/m2
22:15 78 °F 66.2 °F 29.85 in SE 2 mph 2 mph 67% 0.00 in 0 W/m2
22:20 77.9 °F 66.5 °F 29.85 in ESE 1 mph 1 mph 68% 0.00 in 0 W/m2
22:25 77.7 °F 66.3 °F 29.85 in SE 1 mph 2 mph 68% 0.00 in 0 W/m2
22:30 77.6 °F 66.6 °F 29.86 in ESE 2 mph 3 mph 69% 0.00 in 0 W/m2
22:35 77.6 °F 66.2 °F 29.86 in ESE 2 mph 3 mph 68% 0.00 in 0 W/m2
22:40 77.4 °F 66 °F 29.85 in ESE 2 mph 2 mph 68% 0.00 in 0 W/m2
22:45 77.3 °F 65.9 °F 29.85 in East 2 mph 2 mph 68% 0.00 in 0 W/m2
22:50 77.3 °F 66.3 °F 29.86 in SE 2 mph 2 mph 69% 0.00 in 0 W/m2
22:55 77.1 °F 65.3 °F 29.86 in WSW 2 mph 2 mph 67% 0.00 in 0 W/m2
23:00 77 °F 65.2 °F 29.86 in NE 2 mph 2 mph 67% 0.00 in 0 W/m2
23:05 76.8 °F 65 °F 29.86 in SE 2 mph 2 mph 67% 0.00 in 0 W/m2
23:10 76.7 °F 64.9 °F 29.86 in East 2 mph 2 mph 67% 0.00 in 0 W/m2
23:15 76.6 °F 65.7 °F 29.86 in South 2 mph 3 mph 69% 0.00 in 0 W/m2
23:20 76.5 °F 65.1 °F 29.86 in SSW 2 mph 2 mph 68% 0.00 in 0 W/m2
23:25 76.5 °F 65.1 °F 29.86 in East 2 mph 2 mph 68% 0.00 in 0 W/m2
23:30 76.4 °F 65.1 °F 29.86 in South 2 mph 2 mph 68% 0.00 in 0 W/m2
23:35 76.4 °F 65.1 °F 29.86 in South 2 mph 3 mph 68% 0.00 in 0 W/m2
23:40 76.4 °F 65.5 °F 29.86 in South 2 mph 2 mph 69% 0.00 in 0 W/m2
23:45 76.4 °F 65.1 °F 29.86 in ENE 2 mph 3 mph 68% 0.00 in 0 W/m2
23:50 76.2 °F 65.3 °F 29.86 in SSE 2 mph 2 mph 69% 0.00 in 0 W/m2
23:55 76.1 °F 64.8 °F 29.86 in ENE 2 mph 2 mph 68% 0.00 in 0 W/m2
Sand Point, Michigan, USA
Compliments of Weather Underground - 2 mb